General Aviation Weather

Text Reports

Enter one or more of the following location identifiers separated by a space:

Zip Code, Four-Character ICAO or Three-Character IATA airport codes.

METAR - Aviation Routine Weather Report
KAZE - Hazlehurst, Georgia
Updated at 4:35 AM GMT on April 18, 2014 (12:35 AM EDT):
METAR KAZE 180435Z AUTO 08007KT 10SM CLR 15/11 A3027 RMK AO2 T01460110
TAF - Terminal Area Forecast
KAZE - Hazlehurst, Georgia
Updated at 4:35 AM GMT on April 18, 2014 (12:35 AM EDT):
No TAF is currently available for this location.
Decoded:
No decoded TAF is available.
PIREP - Pilot Weather Report
KAZE - Hazlehurst, Georgia
Updated at 4:35 AM GMT on April 18, 2014 (12:35 AM EDT):
No PIREP is currently available for this location.
AIRMET - Airmens Meteorological Information
KAZE - Hazlehurst, Georgia
Updated at 4:35 AM GMT on April 18, 2014 (12:35 AM EDT):
No AIRMET is currently available for this location.
SIGMET - Significant Meteorological Information
KAZE - Hazlehurst, Georgia
Updated at 4:35 AM GMT on April 18, 2014 (12:35 AM EDT):
No SIGMET is currently available for this location.
NOTAM - Notice to Airmen
KAZE - Hazlehurst, Georgia
Updated at 4:35 AM GMT on April 18, 2014 (12:35 AM EDT):
No NOTAM is currently available for this location.
Forecast Area
KAZE - Hazlehurst, Georgia
Updated at 4:35 AM GMT on April 18, 2014 (12:35 AM EDT):
No NOTAM is currently available for this location.
Aviation Weather Maps